Mary's Harbour Airport

CYMH | YMH

Mary's Harbour , Newfoundland and Labrador , Canada

Thursday, October 24th, 2019 | 02:22

Weather

CYMH 240429Z AUTO 15011G17KT 7SM -RA FEW008 BKN015 BKN019 OVC025 04/03 A3022 RMK SLP235

Charts

No Charts Available

Gates

No Gates Available

Runways

1 Available

Events

No events for this airport


New event